Lake Wylie, South Carolina
Current Conditions -  °F | °C
As of 10:54 PM on Sunday 25 Jan 2015 (Local Time) from KAKH Reporting Station
Overcast Overcast  
Wind Chill: 47°   Ceiling: 9000
Heat Index: 49°   Visibility: 10mi
Dew Point: 30°   Wind: 5mph
Humidity: 48%   Direction: 190°S
Pressure: 29.75"   Gusts: NA
Location:  35.1039°N, 81.2451°W
Report Text: KAKH 260354Z AUTO 19004KT 10SM OVC090 09/M01 A2975 RMK AO2 SLP076 T00941011
Loading
Personal Weather Stations






























Interactive Weather Map New forecast layout! Learn more

10-Day Weather Forecast

Advertisements
Track Severe Weather on mobile